createdAt,value
2023-03-29T00:02:32.738Z,2.03
2023-03-29T00:05:04.374Z,1.98
2023-03-29T00:07:34.726Z,2.15
2023-03-29T00:10:02.714Z,2.22
2023-03-29T00:12:30.390Z,1.88
2023-03-29T00:14:58.655Z,2.22
2023-03-29T00:17:26.416Z,2.30
2023-03-29T00:19:54.247Z,2.50
2023-03-29T00:22:23.234Z,2.40
2023-03-29T00:24:54.402Z,2.05
2023-03-29T00:27:22.081Z,2.33
2023-03-29T00:29:49.726Z,2.42
2023-03-29T00:32:17.539Z,2.13
2023-03-29T00:34:46.168Z,1.90
2023-03-29T00:37:14.831Z,1.77
2023-03-29T00:39:44.662Z,2.30
2023-03-29T00:42:13.824Z,2.03
2023-03-29T00:44:58.440Z,1.60
2023-03-29T00:47:28.913Z,2.45
2023-03-29T00:50:00.269Z,2.20
2023-03-29T00:52:30.295Z,1.50
2023-03-29T00:55:01.560Z,1.88
2023-03-29T00:57:30.379Z,1.90
2023-03-29T00:59:58.775Z,3.10
2023-03-29T01:02:29.202Z,2.22
2023-03-29T01:04:59.584Z,1.98
2023-03-29T01:07:30.757Z,1.98
2023-03-29T01:10:04.935Z,2.08
2023-03-29T01:12:35.988Z,3.58
2023-03-29T01:15:05.721Z,1.77
2023-03-29T01:17:33.389Z,2.17
2023-03-29T01:20:08.364Z,1.95
2023-03-29T01:22:41.762Z,2.45
2023-03-29T01:25:13.607Z,1.77
2023-03-29T01:27:50.360Z,2.20
2023-03-29T01:30:20.617Z,2.40
2023-03-29T01:32:50.552Z,1.92
2023-03-29T01:35:22.469Z,2.75
2023-03-29T01:37:52.979Z,2.25
2023-03-29T01:40:20.660Z,1.83
2023-03-29T01:42:51.561Z,1.90
2023-03-29T01:45:23.003Z,1.73
2023-03-29T01:47:54.852Z,3.22
2023-03-29T01:50:28.513Z,2.00
2023-03-29T01:52:57.829Z,1.80
2023-03-29T01:55:27.503Z,2.30
2023-03-29T01:57:57.620Z,1.90
2023-03-29T02:00:27.605Z,2.03
2023-03-29T02:03:00.055Z,2.10
2023-03-29T02:05:29.034Z,2.28
2023-03-29T02:07:57.799Z,2.20
2023-03-29T02:10:25.914Z,2.40
2023-03-29T02:12:54.414Z,1.75
2023-03-29T02:15:24.072Z,1.95
2023-03-29T02:17:52.243Z,2.08
2023-03-29T02:20:22.692Z,2.15
2023-03-29T02:22:56.150Z,2.40
2023-03-29T02:25:24.604Z,2.17
2023-03-29T02:27:52.789Z,1.80
2023-03-29T02:30:21.089Z,1.83
2023-03-29T02:32:53.549Z,2.13
2023-03-29T02:35:23.933Z,2.30
2023-03-29T02:37:55.589Z,2.20
2023-03-29T02:40:26.031Z,2.33
2023-03-29T02:42:55.637Z,2.08
2023-03-29T02:45:24.210Z,1.85
2023-03-29T02:47:55.450Z,2.63
2023-03-29T02:50:23.797Z,2.35
2023-03-29T02:52:54.086Z,2.55
2023-03-29T02:55:23.965Z,2.20
2023-03-29T02:57:51.797Z,2.60
2023-03-29T03:00:20.265Z,2.05
2023-03-29T03:02:48.735Z,2.28
2023-03-29T03:05:18.060Z,2.38
2023-03-29T03:07:46.232Z,2.35
2023-03-29T03:10:13.908Z,2.72
2023-03-29T03:12:41.989Z,2.42
2023-03-29T03:15:10.552Z,2.40
2023-03-29T03:17:40.108Z,2.70
2023-03-29T03:20:12.743Z,2.70
2023-03-29T03:22:42.582Z,2.58
2023-03-29T03:25:11.690Z,3.03
2023-03-29T03:27:39.826Z,2.45
2023-03-29T03:30:08.632Z,2.53
2023-03-29T03:32:36.806Z,3.10
2023-03-29T03:35:05.617Z,3.05
2023-03-29T03:37:33.434Z,2.58
2023-03-29T03:40:05.854Z,2.85
2023-03-29T03:42:33.806Z,3.00
2023-03-29T03:45:01.868Z,2.95
2023-03-29T03:47:29.581Z,2.42
2023-03-29T03:49:57.483Z,2.20
2023-03-29T03:52:25.340Z,2.95
2023-03-29T03:54:53.000Z,2.90
2023-03-29T03:57:22.926Z,2.33
2023-03-29T03:59:50.617Z,2.88
2023-03-29T04:02:20.296Z,2.90
2023-03-29T04:04:48.045Z,3.05
2023-03-29T04:07:17.954Z,3.00
2023-03-29T04:09:45.990Z,2.70
2023-03-29T04:12:13.600Z,2.58
2023-03-29T04:14:42.913Z,3.78
2023-03-29T04:17:10.550Z,3.15
2023-03-29T04:19:38.171Z,3.05
2023-03-29T04:22:05.971Z,2.53
2023-03-29T04:24:33.609Z,2.53
2023-03-29T04:27:01.258Z,2.90
2023-03-29T04:29:29.354Z,2.85
2023-03-29T04:31:58.664Z,2.63
2023-03-29T04:34:26.401Z,2.80
2023-03-29T04:36:54.171Z,2.53
2023-03-29T04:39:22.154Z,2.72
2023-03-29T04:41:49.803Z,2.45
2023-03-29T04:44:17.539Z,3.53
2023-03-29T04:46:45.524Z,2.80
2023-03-29T04:49:14.638Z,2.65
2023-03-29T04:51:42.337Z,2.80
2023-03-29T04:54:10.261Z,2.75
2023-03-29T04:56:38.071Z,2.67
2023-03-29T04:59:06.505Z,2.65
2023-03-29T05:01:35.167Z,3.03
2023-03-29T05:04:03.385Z,2.83
2023-03-29T05:06:32.433Z,2.40
2023-03-29T05:09:01.188Z,2.55
2023-03-29T05:11:29.354Z,2.38
2023-03-29T05:14:00.750Z,2.65
2023-03-29T05:16:30.245Z,3.08
2023-03-29T05:18:57.951Z,3.08
2023-03-29T05:21:27.874Z,2.83
2023-03-29T05:23:56.953Z,2.60
2023-03-29T05:26:25.507Z,2.40
2023-03-29T05:28:53.249Z,2.90
2023-03-29T05:31:21.039Z,2.35
2023-03-29T05:33:48.859Z,2.58
2023-03-29T05:36:19.312Z,2.92
2023-03-29T05:38:47.674Z,2.80
2023-03-29T05:41:18.002Z,2.28
2023-03-29T05:43:45.798Z,3.00
2023-03-29T05:46:15.897Z,2.53
2023-03-29T05:48:43.625Z,2.67
2023-03-29T05:51:11.419Z,2.90
2023-03-29T05:53:39.059Z,2.92
2023-03-29T05:56:08.902Z,2.53
2023-03-29T05:58:38.253Z,2.83
2023-03-29T06:01:06.271Z,2.67
2023-03-29T06:03:34.116Z,2.42
2023-03-29T06:06:02.645Z,2.72
2023-03-29T06:08:30.721Z,3.10
2023-03-29T06:11:00.667Z,2.65
2023-03-29T06:13:33.548Z,2.67
2023-03-29T06:16:04.344Z,3.20
2023-03-29T06:18:32.247Z,3.05
2023-03-29T06:21:02.830Z,2.92
2023-03-29T06:23:30.732Z,3.10
2023-03-29T06:26:00.206Z,3.67
2023-03-29T06:28:28.013Z,3.10
2023-03-29T06:30:59.402Z,3.15
2023-03-29T06:33:29.175Z,3.47
2023-03-29T06:35:57.397Z,3.60
2023-03-29T06:38:26.430Z,3.13
2023-03-29T06:41:01.081Z,2.90
2023-03-29T06:43:28.891Z,2.83
2023-03-29T06:45:56.607Z,2.30
2023-03-29T06:48:24.280Z,2.63
2023-03-29T06:50:54.574Z,2.45
2023-03-29T06:53:23.036Z,3.00
2023-03-29T06:55:54.747Z,2.55
2023-03-29T06:58:22.746Z,3.17
2023-03-29T07:00:50.889Z,3.17
2023-03-29T07:03:23.465Z,3.25
2023-03-29T07:05:52.212Z,3.70
2023-03-29T07:08:22.469Z,2.78
2023-03-29T07:10:52.933Z,3.33
2023-03-29T07:13:20.725Z,3.08
2023-03-29T07:15:48.442Z,2.47
2023-03-29T07:18:18.369Z,2.83
2023-03-29T07:20:47.643Z,2.80
2023-03-29T07:23:15.439Z,2.63
2023-03-29T07:25:44.822Z,2.85
2023-03-29T07:28:12.956Z,2.72
2023-03-29T07:30:40.618Z,2.92
2023-03-29T07:33:09.635Z,3.45
2023-03-29T07:35:38.318Z,3.47
2023-03-29T07:38:06.054Z,2.97
2023-03-29T07:40:34.221Z,3.33
2023-03-29T07:43:08.977Z,2.72
2023-03-29T07:45:36.912Z,2.95
2023-03-29T07:48:04.930Z,3.45
2023-03-29T07:50:33.035Z,3.00
2023-03-29T07:53:01.638Z,3.35
2023-03-29T07:55:29.502Z,2.97
2023-03-29T07:57:57.131Z,2.88
2023-03-29T08:00:26.362Z,3.33
2023-03-29T08:02:54.182Z,3.38
2023-03-29T08:05:37.903Z,2.60
2023-03-29T08:08:08.203Z,3.90
2023-03-29T08:10:37.780Z,2.90
2023-03-29T08:13:07.489Z,2.90
2023-03-29T08:15:39.591Z,2.83
2023-03-29T08:18:07.660Z,3.75
2023-03-29T08:20:35.539Z,4.10
2023-03-29T08:23:03.478Z,2.75
2023-03-29T08:25:31.266Z,3.65
2023-03-29T08:27:59.020Z,3.65
2023-03-29T08:30:27.109Z,3.47
2023-03-29T08:32:56.568Z,4.07
2023-03-29T08:35:24.297Z,3.45
2023-03-29T08:37:52.766Z,3.10
2023-03-29T08:40:22.618Z,3.67
2023-03-29T08:42:57.760Z,3.20
2023-03-29T08:45:29.422Z,2.90
2023-03-29T08:48:02.848Z,2.97
2023-03-29T08:50:34.244Z,3.45
2023-03-29T08:53:03.419Z,3.53
2023-03-29T08:55:33.381Z,2.78
2023-03-29T08:58:02.485Z,3.13
2023-03-29T09:00:35.030Z,2.88
2023-03-29T09:03:04.250Z,3.92
2023-03-29T09:05:34.946Z,3.47
2023-03-29T09:08:02.644Z,3.35
2023-03-29T09:10:36.313Z,2.95
2023-03-29T09:13:12.022Z,3.20
2023-03-29T09:15:44.886Z,2.60
2023-03-29T09:18:21.275Z,3.05
2023-03-29T09:20:52.276Z,3.17
2023-03-29T09:23:29.408Z,3.13
2023-03-29T09:26:00.990Z,3.35
2023-03-29T09:28:32.910Z,3.00
2023-03-29T09:31:02.648Z,3.50
2023-03-29T09:33:37.439Z,3.70
2023-03-29T09:36:08.991Z,3.70
2023-03-29T09:38:38.566Z,3.33
2023-03-29T09:41:10.076Z,2.95
2023-03-29T09:43:41.901Z,2.88
2023-03-29T09:46:16.401Z,3.30
2023-03-29T09:48:46.502Z,3.27
2023-03-29T09:51:14.692Z,2.67
2023-03-29T09:53:42.439Z,2.72
2023-03-29T09:56:11.191Z,2.60
2023-03-29T09:58:39.587Z,3.17
2023-03-29T10:01:10.558Z,2.60
2023-03-29T10:03:38.284Z,2.75
2023-03-29T10:06:08.662Z,2.22
2023-03-29T10:08:38.166Z,2.58
2023-03-29T10:11:08.491Z,2.50
2023-03-29T10:13:36.753Z,2.53
2023-03-29T10:16:05.987Z,2.50
2023-03-29T10:18:34.148Z,2.38
2023-03-29T10:21:03.726Z,2.17
2023-03-29T10:23:34.657Z,2.22
2023-03-29T10:26:04.663Z,2.38
2023-03-29T10:28:33.140Z,2.28
2023-03-29T10:31:03.958Z,2.08
2023-03-29T10:33:33.748Z,1.88
2023-03-29T10:36:02.420Z,2.35
2023-03-29T10:38:30.820Z,1.90
2023-03-29T10:41:08.658Z,2.38
2023-03-29T10:43:37.244Z,2.53
2023-03-29T10:46:09.085Z,1.88
2023-03-29T10:48:36.815Z,1.70
2023-03-29T10:51:07.514Z,2.20
2023-03-29T10:53:36.108Z,2.20
2023-03-29T10:56:11.810Z,1.88
2023-03-29T10:58:43.571Z,1.85
2023-03-29T11:01:14.668Z,1.95
2023-03-29T11:03:54.529Z,2.10
2023-03-29T11:06:27.646Z,2.25
2023-03-29T11:08:58.389Z,2.13
2023-03-29T11:11:44.146Z,2.03
2023-03-29T11:14:18.209Z,2.20
2023-03-29T11:16:49.328Z,1.90
2023-03-29T11:19:30.304Z,2.22
2023-03-29T11:22:01.746Z,2.45
2023-03-29T11:24:37.033Z,2.00
2023-03-29T11:27:13.935Z,2.38
2023-03-29T11:29:50.064Z,2.35
2023-03-29T11:32:21.527Z,2.00
2023-03-29T11:34:57.409Z,1.73
2023-03-29T11:37:30.037Z,1.80
2023-03-29T11:40:05.617Z,1.95
2023-03-29T11:42:34.994Z,1.60
2023-03-29T11:45:05.460Z,1.75
2023-03-29T11:47:33.917Z,1.65
2023-03-29T11:50:04.804Z,1.85
2023-03-29T11:52:34.820Z,1.60
2023-03-29T11:55:05.493Z,1.75
2023-03-29T11:57:36.399Z,1.75
2023-03-29T12:00:07.756Z,1.30
2023-03-29T12:02:38.218Z,1.20
2023-03-29T12:05:13.121Z,1.67
2023-03-29T12:07:45.063Z,1.80
2023-03-29T12:10:17.841Z,1.80
2023-03-29T12:12:46.788Z,1.70
2023-03-29T12:15:20.180Z,2.28
2023-03-29T12:17:50.727Z,1.30
2023-03-29T12:20:21.161Z,1.70
2023-03-29T12:22:50.913Z,2.55
2023-03-29T12:25:22.804Z,2.38
2023-03-29T12:27:57.846Z,2.20
2023-03-29T12:30:43.784Z,2.15
2023-03-29T12:33:29.974Z,2.33
2023-03-29T12:36:07.741Z,2.13
2023-03-29T12:38:35.813Z,1.60
2023-03-29T12:41:11.260Z,2.90
2023-03-29T12:43:39.950Z,2.03
2023-03-29T12:46:10.024Z,2.03
2023-03-29T12:48:38.942Z,2.22
2023-03-29T12:51:08.973Z,2.60
2023-03-29T12:53:38.228Z,2.33
2023-03-29T12:56:11.645Z,2.40
2023-03-29T12:58:42.954Z,2.28
2023-03-29T13:01:23.380Z,2.47
2023-03-29T13:03:52.735Z,2.08
2023-03-29T13:06:28.949Z,2.88
2023-03-29T13:09:00.451Z,2.67
2023-03-29T13:11:29.282Z,2.80
2023-03-29T13:13:57.546Z,3.28
2023-03-29T13:16:32.236Z,2.75
2023-03-29T13:19:06.681Z,2.92
2023-03-29T13:21:38.257Z,3.25
2023-03-29T13:24:16.858Z,3.35
2023-03-29T13:26:50.997Z,3.28
2023-03-29T13:29:35.347Z,3.60
2023-03-29T13:32:07.552Z,3.08
2023-03-29T13:34:40.121Z,3.72
2023-03-29T13:37:13.267Z,3.50
2023-03-29T13:39:48.991Z,4.68
2023-03-29T13:42:21.638Z,4.25
2023-03-29T13:44:49.938Z,4.00
2023-03-29T13:47:39.726Z,3.67
2023-03-29T13:50:12.630Z,4.10
2023-03-29T13:52:43.462Z,3.75
2023-03-29T13:55:15.945Z,4.30
2023-03-29T13:57:46.948Z,3.65
2023-03-29T14:00:20.104Z,3.95
2023-03-29T14:02:50.986Z,4.00
2023-03-29T14:05:19.883Z,4.68
2023-03-29T14:07:49.946Z,4.13
2023-03-29T14:10:22.873Z,3.75
2023-03-29T14:12:51.100Z,4.88
2023-03-29T14:15:23.850Z,4.47
2023-03-29T14:17:57.700Z,4.38
2023-03-29T14:20:27.177Z,4.55
2023-03-29T14:22:54.845Z,3.72
2023-03-29T14:25:22.733Z,3.97
2023-03-29T14:27:50.885Z,4.05
2023-03-29T14:30:23.086Z,3.75
2023-03-29T14:32:52.585Z,4.60
2023-03-29T14:35:27.924Z,4.75
2023-03-29T14:37:56.427Z,4.53
2023-03-29T14:40:24.490Z,4.53
2023-03-29T14:42:52.166Z,3.90
2023-03-29T14:45:23.829Z,4.40
2023-03-29T14:47:52.146Z,4.68
2023-03-29T14:50:23.595Z,4.53
2023-03-29T14:52:52.633Z,5.57
2023-03-29T14:55:23.728Z,5.03
2023-03-29T14:57:52.823Z,5.40
2023-03-29T15:00:24.568Z,3.83
2023-03-29T15:02:55.231Z,5.43
2023-03-29T15:05:26.309Z,5.07
2023-03-29T15:07:56.261Z,4.80
2023-03-29T15:10:24.152Z,4.80
2023-03-29T15:12:52.799Z,4.70
2023-03-29T15:15:20.872Z,4.15
2023-03-29T15:17:52.126Z,4.68
2023-03-29T15:20:23.398Z,5.57
2023-03-29T15:22:57.663Z,5.43
2023-03-29T15:25:27.671Z,4.40
2023-03-29T15:27:56.294Z,4.78
2023-03-29T15:30:31.508Z,4.35
2023-03-29T15:35:27.149Z,3.92
2023-03-29T15:37:56.491Z,5.15
2023-03-29T15:40:26.434Z,4.65
2023-03-29T15:42:55.055Z,4.15
2023-03-29T15:45:22.948Z,3.70
2023-03-29T15:47:51.318Z,4.00
2023-03-29T15:50:18.999Z,4.40
2023-03-29T15:52:46.680Z,3.70
2023-03-29T15:55:15.875Z,3.75
2023-03-29T15:57:47.623Z,3.72
2023-03-29T16:00:17.817Z,4.15
2023-03-29T16:02:45.513Z,4.97
2023-03-29T16:05:13.491Z,4.78
2023-03-29T16:07:41.229Z,5.03
2023-03-29T16:10:10.207Z,4.55
2023-03-29T16:12:39.267Z,3.63
2023-03-29T16:15:11.979Z,3.90
2023-03-29T16:17:39.707Z,3.38
2023-03-29T16:20:08.708Z,3.97
2023-03-29T16:22:36.415Z,4.18
2023-03-29T16:25:05.497Z,3.78
2023-03-29T16:27:33.317Z,3.85
2023-03-29T16:30:02.313Z,3.92
2023-03-29T16:32:30.037Z,4.20
2023-03-29T16:34:58.468Z,3.17
2023-03-29T16:37:26.250Z,3.72
2023-03-29T16:39:54.002Z,3.47
2023-03-29T16:42:21.702Z,3.90
2023-03-29T16:44:49.336Z,3.38
2023-03-29T16:47:18.357Z,3.33
2023-03-29T16:49:48.621Z,4.35
2023-03-29T16:52:16.258Z,3.50
2023-03-29T16:54:44.257Z,3.35
2023-03-29T16:57:12.062Z,3.40
2023-03-29T16:59:41.804Z,2.80
2023-03-29T17:02:10.463Z,3.67
2023-03-29T17:04:39.664Z,3.53
2023-03-29T17:07:07.722Z,2.92
2023-03-29T17:09:35.481Z,3.05
2023-03-29T17:12:03.170Z,3.22
2023-03-29T17:14:31.478Z,2.47
2023-03-29T17:16:59.711Z,2.70
2023-03-29T17:19:34.126Z,3.15
2023-03-29T17:22:03.202Z,3.67
2023-03-29T17:24:31.152Z,3.10
2023-03-29T17:26:58.906Z,2.55
2023-03-29T17:29:26.820Z,3.10
2023-03-29T17:31:55.820Z,3.03
2023-03-29T17:34:24.341Z,2.92
2023-03-29T17:36:53.772Z,4.65
2023-03-29T17:39:25.162Z,2.72
2023-03-29T17:41:53.122Z,2.83
2023-03-29T17:44:21.131Z,3.78
2023-03-29T17:46:48.871Z,3.88
2023-03-29T17:49:17.251Z,4.20
2023-03-29T17:51:44.908Z,4.57
2023-03-29T17:54:14.072Z,5.03
2023-03-29T17:56:43.182Z,4.88
2023-03-29T17:59:10.907Z,3.60
2023-03-29T18:01:39.440Z,3.63
2023-03-29T18:04:07.595Z,3.05
2023-03-29T18:06:35.384Z,3.28
2023-03-29T18:09:03.548Z,3.22
2023-03-29T18:11:31.647Z,3.60
2023-03-29T18:14:01.200Z,3.67
2023-03-29T18:16:29.250Z,3.33
2023-03-29T18:18:57.046Z,3.60
2023-03-29T18:21:26.101Z,3.10
2023-03-29T18:23:56.212Z,3.45
2023-03-29T18:26:25.814Z,3.20
2023-03-29T18:28:54.273Z,3.40
2023-03-29T18:31:23.352Z,3.58
2023-03-29T18:33:51.230Z,2.67
2023-03-29T18:36:18.921Z,2.90
2023-03-29T18:38:47.780Z,3.28
2023-03-29T18:41:27.442Z,2.72
2023-03-29T18:43:57.365Z,2.65
2023-03-29T18:46:32.440Z,3.30
2023-03-29T18:49:00.625Z,3.85
2023-03-29T18:51:29.278Z,2.78
2023-03-29T18:53:57.089Z,2.95
2023-03-29T18:56:24.761Z,3.55
2023-03-29T18:58:52.782Z,3.40
2023-03-29T19:01:20.636Z,3.22
2023-03-29T19:03:49.790Z,3.38
2023-03-29T19:06:17.994Z,3.15
2023-03-29T19:08:45.660Z,3.13
2023-03-29T19:11:14.342Z,3.10
2023-03-29T19:13:42.204Z,2.88
2023-03-29T19:16:10.430Z,2.97
2023-03-29T19:18:38.079Z,2.65
2023-03-29T19:21:07.065Z,2.58
2023-03-29T19:23:34.815Z,2.60
2023-03-29T19:26:04.011Z,2.72
2023-03-29T19:28:32.236Z,2.63
2023-03-29T19:31:01.375Z,3.13
2023-03-29T19:33:29.290Z,2.42
2023-03-29T19:35:57.150Z,2.25
2023-03-29T19:38:26.347Z,2.40
2023-03-29T19:40:56.987Z,2.55
2023-03-29T19:43:25.671Z,2.45
2023-03-29T19:45:53.341Z,2.13
2023-03-29T19:48:23.888Z,2.05
2023-03-29T19:50:52.246Z,2.00
2023-03-29T19:53:20.082Z,1.77
2023-03-29T19:55:49.653Z,2.40
2023-03-29T19:58:17.318Z,2.42
2023-03-29T20:00:46.739Z,2.17
2023-03-29T20:03:15.730Z,2.08
2023-03-29T20:05:43.561Z,1.90
2023-03-29T20:08:11.271Z,2.33
2023-03-29T20:10:39.069Z,2.58
2023-03-29T20:13:08.062Z,2.42
2023-03-29T20:15:35.978Z,1.73
2023-03-29T20:18:03.986Z,1.85
2023-03-29T20:20:31.787Z,1.80
2023-03-29T20:23:04.717Z,1.75
2023-03-29T20:25:33.079Z,2.38
2023-03-29T20:28:00.759Z,1.98
2023-03-29T20:30:29.814Z,1.58
2023-03-29T20:32:57.721Z,2.08
2023-03-29T20:35:27.173Z,1.95
2023-03-29T20:37:54.870Z,2.10
2023-03-29T20:40:23.007Z,2.40
2023-03-29T20:43:04.926Z,2.28
2023-03-29T20:45:46.088Z,2.80
2023-03-29T20:48:21.657Z,2.50
2023-03-29T20:50:50.194Z,2.15
2023-03-29T20:53:18.491Z,2.08
2023-03-29T20:55:47.896Z,1.55
2023-03-29T20:58:16.322Z,2.13
2023-03-29T21:00:45.316Z,1.80
2023-03-29T21:03:13.080Z,1.98
2023-03-29T21:05:40.883Z,2.15
2023-03-29T21:08:08.546Z,1.70
2023-03-29T21:10:37.077Z,1.70
2023-03-29T21:13:04.793Z,2.53
2023-03-29T21:15:33.746Z,2.10
2023-03-29T21:18:03.098Z,2.50
2023-03-29T21:20:32.332Z,1.80
2023-03-29T21:23:00.345Z,1.90
2023-03-29T21:25:28.052Z,2.22
2023-03-29T21:30:44.944Z,1.85
2023-03-29T21:33:14.057Z,2.00
2023-03-29T21:35:41.744Z,1.80
2023-03-29T21:38:09.398Z,1.95
2023-03-29T21:40:37.146Z,2.03
2023-03-29T21:43:04.810Z,1.88
2023-03-29T21:45:32.500Z,1.70
2023-03-29T21:48:00.450Z,1.83
2023-03-29T21:50:31.981Z,2.53
2023-03-29T21:53:02.085Z,2.47
2023-03-29T21:55:29.880Z,1.50
2023-03-29T21:57:57.538Z,2.25
2023-03-29T22:00:25.484Z,1.40
2023-03-29T22:02:53.184Z,1.60
2023-03-29T22:05:20.832Z,1.30
2023-03-29T22:07:50.465Z,1.50
2023-03-29T22:10:22.641Z,1.30
2023-03-29T22:12:50.759Z,1.20
2023-03-29T22:15:19.449Z,1.30
2023-03-29T22:17:47.967Z,1.38
2023-03-29T22:20:18.505Z,1.70
2023-03-29T22:22:49.887Z,1.30
2023-03-29T22:25:19.230Z,1.90
2023-03-29T22:27:47.964Z,1.55
2023-03-29T22:30:16.206Z,1.50
2023-03-29T22:32:44.137Z,1.80
2023-03-29T22:35:12.637Z,1.73
2023-03-29T22:37:43.481Z,1.83
2023-03-29T22:40:12.160Z,1.55
2023-03-29T22:42:41.252Z,1.98
2023-03-29T22:45:09.559Z,1.35
2023-03-29T22:47:37.408Z,1.75
2023-03-29T22:50:05.631Z,2.03
2023-03-29T22:52:33.393Z,1.70
2023-03-29T22:55:01.004Z,1.88
2023-03-29T22:57:29.879Z,1.60
2023-03-29T22:59:58.918Z,1.67
2023-03-29T23:02:26.596Z,1.52
2023-03-29T23:04:54.253Z,1.42
2023-03-29T23:07:21.934Z,2.05
2023-03-29T23:09:49.881Z,1.45
2023-03-29T23:12:17.804Z,2.03
2023-03-29T23:14:45.593Z,1.67
2023-03-29T23:17:19.431Z,1.27
2023-03-29T23:19:47.296Z,1.67
2023-03-29T23:22:15.416Z,1.50
2023-03-29T23:24:47.290Z,1.42
2023-03-29T23:27:16.119Z,1.23
2023-03-29T23:29:45.293Z,1.17
2023-03-29T23:32:14.756Z,1.35
2023-03-29T23:34:42.651Z,1.98
2023-03-29T23:37:10.341Z,1.58
2023-03-29T23:39:38.079Z,1.60
2023-03-29T23:42:05.987Z,1.55
2023-03-29T23:44:33.644Z,1.92
2023-03-29T23:47:01.441Z,1.50
2023-03-29T23:49:30.860Z,1.55
2023-03-29T23:52:00.140Z,1.83
2023-03-29T23:54:29.072Z,1.67
2023-03-29T23:56:57.286Z,2.08
2023-03-29T23:59:28.874Z,1.52
